Time;durP1;ratioP1;P1;durP2;ratioP2;P2;SDS_P1;SDS_P2;PMS_P1;PMS_P2;Temp;Humidity;BMP_temperature;BMP_pressure;BME280_temperature;BME280_humidity;BME280_pressure;Samples;Min_cycle;Max_cycle;Signal;HPM_P1;HPM_P2
2023/06/10 00:00:01;;;;;;;18.75;7.95;;;13.90;99.90;;;;;;5044564;28;20052;-57
2023/06/10 00:02:39;;;;;;;11.57;6.57;;;13.80;99.90;;;;;;5045789;28;20037;-58
2023/06/10 00:05:09;;;;;;;14.02;7.22;;;13.80;99.90;;;;;;5071201;28;20395;-57
2023/06/10 00:07:39;;;;;;;18.08;6.55;;;13.70;99.90;;;;;;5056306;28;20479;-58
2023/06/10 00:10:10;;;;;;;11.93;7.38;;;13.70;99.90;;;;;;5070031;28;20059;-57
2023/06/10 00:12:40;;;;;;;13.73;6.97;;;13.60;99.90;;;;;;5064373;28;20059;-58
2023/06/10 00:15:08;;;;;;;14.27;6.82;;;13.70;99.90;;;;;;5064572;28;20040;-58
2023/06/10 00:17:38;;;;;;;15.98;6.90;;;13.60;99.90;;;;;;5062573;28;20507;-59
2023/06/10 00:20:11;;;;;;;12.00;7.53;;;13.60;99.90;;;;;;5084921;28;20928;-61
2023/06/10 00:22:41;;;;;;;15.27;7.00;;;13.50;99.90;;;;;;5048570;28;20052;-58
2023/06/10 00:25:10;;;;;;;14.82;7.55;;;13.60;99.90;;;;;;5064717;28;20068;-57
2023/06/10 00:27:39;;;;;;;17.55;8.25;;;13.50;99.90;;;;;;5064646;28;20394;-58
2023/06/10 00:30:07;;;;;;;14.15;7.40;;;13.50;99.90;;;;;;5064511;28;20056;-57
2023/06/10 00:32:36;;;;;;;19.40;8.25;;;13.50;99.90;;;;;;5057641;28;20048;-57
2023/06/10 00:35:05;;;;;;;19.05;8.07;;;13.40;99.90;;;;;;5051739;28;20527;-58
2023/06/10 00:37:35;;;;;;;18.38;8.43;;;13.40;99.90;;;;;;5049330;28;20057;-58
2023/06/10 00:40:05;;;;;;;16.65;8.50;;;13.40;99.90;;;;;;5062922;28;20044;-58
2023/06/10 00:42:33;;;;;;;16.95;8.23;;;13.40;99.90;;;;;;5057100;28;20075;-57
2023/06/10 00:45:01;;;;;;;17.00;7.53;;;13.30;99.90;;;;;;5053037;28;20040;-57
2023/06/10 00:47:31;;;;;;;14.17;8.73;;;13.30;99.90;;;;;;5063062;28;20048;-58
2023/06/10 00:49:59;;;;;;;20.60;9.45;;;12.50;99.90;;;;;;5087489;28;20491;-57
2023/06/10 00:52:30;;;;;;;24.50;9.07;;;13.30;99.90;;;;;;5058645;28;20447;-57
2023/06/10 00:54:59;;;;;;;;;;;13.20;99.90;;;;;;5046701;28;20056;-58
2023/06/10 00:57:27;;;;;;;14.73;9.05;;;13.20;99.90;;;;;;5047990;28;19944;-57
2023/06/10 00:59:55;;;;;;;19.48;8.75;;;13.10;99.90;;;;;;5065614;28;20396;-58
2023/06/10 01:02:23;;;;;;;20.67;9.57;;;13.20;99.90;;;;;;5053414;28;20052;-56
2023/06/10 01:04:52;;;;;;;13.80;8.50;;;13.10;99.90;;;;;;5084901;28;20059;-57
2023/06/10 01:07:35;;;;;;;17.60;9.30;;;13.10;99.90;;;;;;5061487;28;20511;-57
2023/06/10 01:10:10;;;;;;;18.38;9.05;;;13.10;99.90;;;;;;5063787;28;20397;-57
2023/06/10 01:12:48;;;;;;;16.73;8.60;;;13.10;99.90;;;;;;5071402;28;20067;-57
2023/06/10 01:15:18;;;;;;;21.98;10.50;;;13.10;99.90;;;;;;5090164;28;20035;-57
2023/06/10 01:18:16;;;;;;;16.50;9.73;;;13.00;99.90;;;;;;5086433;28;20040;-56
2023/06/10 01:20:46;;;;;;;18.17;10.13;;;13.00;99.90;;;;;;5085899;28;20055;-57
2023/06/10 01:23:15;;;;;;;19.90;9.82;;;13.10;99.90;;;;;;5058078;28;20040;-56
2023/06/10 01:26:09;;;;;;;15.93;9.75;;;13.00;99.90;;;;;;5069532;28;20048;-57
2023/06/10 01:28:53;;;;;;;16.45;9.30;;;13.00;99.90;;;;;;5070580;28;20053;-57
2023/06/10 01:31:43;;;;;;;18.40;9.82;;;13.00;99.90;;;;;;5066396;28;20043;-57
2023/06/10 01:34:16;;;;;;;19.25;10.82;;;13.00;99.90;;;;;;5074149;28;20044;-57
2023/06/10 01:36:47;;;;;;;16.35;9.50;;;13.00;99.90;;;;;;5069641;28;20060;-56
2023/06/10 01:39:17;;;;;;;19.88;10.30;;;12.90;99.90;;;;;;5071944;28;20419;-57
2023/06/10 01:41:46;;;;;;;17.30;10.07;;;12.90;99.90;;;;;;5073679;28;20036;-57
2023/06/10 01:44:21;;;;;;;19.02;9.70;;;12.90;99.90;;;;;;5073701;28;20044;-57
2023/06/10 01:46:49;;;;;;;16.85;9.15;;;12.80;99.90;;;;;;5072360;28;20044;-56
2023/06/10 01:49:18;;;;;;;23.13;10.35;;;12.80;99.90;;;;;;5074065;28;20048;-57
2023/06/10 01:51:46;;;;;;;22.98;12.90;;;;;;;;;;5071741;28;20044;-57
2023/06/10 01:54:13;;;;;;;19.65;9.80;;;12.70;99.90;;;;;;5073821;28;20476;-57
2023/06/10 01:56:41;;;;;;;19.98;9.57;;;12.70;99.90;;;;;;5073541;28;20078;-57
2023/06/10 01:59:09;;;;;;;22.70;10.48;;;12.70;99.90;;;;;;5069779;28;20041;-57
2023/06/10 02:01:37;;;;;;;20.40;10.40;;;12.60;99.90;;;;;;5059536;28;20040;-56
2023/06/10 02:04:06;;;;;;;20.48;9.50;;;12.60;99.90;;;;;;5072114;28;20047;-56
2023/06/10 02:06:35;;;;;;;19.60;10.55;;;12.50;99.90;;;;;;5073406;28;20079;-57
2023/06/10 02:09:03;;;;;;;22.20;10.60;;;12.50;99.90;;;;;;5072171;28;20044;-56
2023/06/10 02:11:31;;;;;;;17.88;10.65;;;12.40;99.90;;;;;;5076829;28;20051;-57
2023/06/10 02:13:59;;;;;;;19.02;10.65;;;12.40;99.90;;;;;;5073117;28;20047;-56
2023/06/10 02:16:27;;;;;;;21.83;11.32;;;12.40;99.90;;;;;;5072071;28;20048;-57
2023/06/10 02:18:55;;;;;;;18.80;10.52;;;12.40;99.90;;;;;;5073063;28;20044;-57
2023/06/10 02:21:23;;;;;;;19.50;11.35;;;12.40;99.90;;;;;;5071704;28;20127;-57
2023/06/10 02:23:51;;;;;;;17.55;10.45;;;12.30;99.90;;;;;;5072035;28;20052;-56
2023/06/10 02:26:20;;;;;;;22.10;11.48;;;12.30;99.90;;;;;;5072989;28;20048;-56
2023/06/10 02:28:48;;;;;;;18.23;11.45;;;12.30;99.90;;;;;;5073090;28;20400;-57
2023/06/10 02:31:17;;;;;;;18.80;11.38;;;12.30;99.90;;;;;;5070650;28;20388;-57
2023/06/10 02:33:46;;;;;;;23.75;11.73;;;12.30;99.90;;;;;;5051877;28;20045;-57
2023/06/10 02:36:15;;;;;;;20.55;11.52;;;12.20;99.90;;;;;;5051504;28;20041;-56
2023/06/10 02:38:44;;;;;;;20.83;11.98;;;12.20;99.90;;;;;;5054499;28;20051;-56
2023/06/10 02:41:12;;;;;;;20.45;11.32;;;12.20;99.90;;;;;;5075708;28;20040;-56
2023/06/10 02:43:41;;;;;;;20.55;11.05;;;12.20;99.90;;;;;;5071039;28;20048;-57
2023/06/10 02:46:10;;;;;;;19.70;11.45;;;12.10;99.90;;;;;;5071398;28;20044;-57
2023/06/10 02:48:45;;;;;;;21.92;11.90;;;12.10;99.90;;;;;;5071099;28;20033;-57
2023/06/10 02:51:19;;;;;;;21.05;12.30;;;12.10;99.90;;;;;;5071342;28;20111;-56
2023/06/10 02:53:50;;;;;;;23.00;12.57;;;12.00;99.90;;;;;;5055414;28;20400;-56
2023/06/10 02:56:18;;;;;;;21.75;11.25;;;12.00;99.90;;;;;;5062674;28;20056;-57
2023/06/10 02:58:48;;;;;;;21.37;11.90;;;12.00;99.90;;;;;;5051611;28;20037;-57
2023/06/10 03:01:22;;;;;;;29.40;12.88;;;12.00;99.90;;;;;;5070971;28;20049;-57
2023/06/10 03:04:06;;;;;;;21.63;11.18;;;12.00;99.90;;;;;;5071127;28;20499;-57
2023/06/10 03:06:36;;;;;;;29.00;11.25;;;12.00;99.90;;;;;;5071166;28;20055;-56
2023/06/10 03:09:11;;;;;;;27.17;12.07;;;12.00;99.90;;;;;;5071054;28;20051;-56
2023/06/10 03:11:41;;;;;;;23.20;11.00;;;12.00;99.90;;;;;;5069003;28;20060;-56
2023/06/10 03:14:10;;;;;;;21.65;11.77;;;12.00;99.90;;;;;;5070955;28;20040;-56
2023/06/10 03:16:42;;;;;;;16.92;10.70;;;12.00;99.90;;;;;;5070654;28;20060;-56
2023/06/10 03:19:10;;;;;;;20.65;10.95;;;11.90;99.90;;;;;;5071004;28;20044;-56
2023/06/10 03:21:44;;;;;;;22.17;11.80;;;11.90;99.90;;;;;;5070723;28;20044;-57
2023/06/10 03:24:15;;;;;;;19.70;11.82;;;11.90;99.90;;;;;;5070605;28;20041;-57
2023/06/10 03:26:43;;;;;;;22.58;12.45;;;11.90;99.90;;;;;;5070634;28;20067;-56
2023/06/10 03:29:11;;;;;;;26.30;13.05;;;11.90;99.90;;;;;;5070690;28;20044;-56
2023/06/10 03:31:40;;;;;;;21.67;11.52;;;11.80;99.90;;;;;;5069125;28;20053;-56
2023/06/10 03:34:08;;;;;;;23.15;10.65;;;11.80;99.90;;;;;;5070590;28;20056;-56
2023/06/10 03:36:37;;;;;;;20.63;11.85;;;11.80;99.90;;;;;;5053768;28;20057;-57
2023/06/10 03:39:05;;;;;;;20.65;11.05;;;11.80;99.90;;;;;;5070410;28;20393;-58
2023/06/10 03:41:34;;;;;;;18.05;10.98;;;11.80;99.90;;;;;;5075747;28;20043;-57
2023/06/10 03:44:03;;;;;;;20.23;11.75;;;11.80;99.90;;;;;;5071924;28;20063;-57
2023/06/10 03:46:31;;;;;;;24.80;12.00;;;11.80;99.90;;;;;;5068563;28;20055;-57
2023/06/10 03:49:03;;;;;;;25.95;11.75;;;11.80;99.90;;;;;;5051461;28;20037;-56
2023/06/10 03:51:31;;;;;;;23.63;12.20;;;11.80;99.90;;;;;;5054406;28;20484;-55
2023/06/10 03:53:59;;;;;;;23.27;12.70;;;11.80;99.90;;;;;;5066141;28;20427;-57
2023/06/10 03:56:28;;;;;;;19.08;11.45;;;11.80;99.90;;;;;;5070105;28;20049;-57
2023/06/10 03:58:56;;;;;;;22.80;11.63;;;11.80;99.90;;;;;;5070502;28;20059;-57
2023/06/10 04:01:24;;;;;;;23.35;12.38;;;11.90;99.90;;;;;;5071144;28;20032;-56
2023/06/10 04:03:53;;;;;;;22.20;12.77;;;11.90;99.90;;;;;;5070174;28;20484;-56
2023/06/10 04:06:22;;;;;;;;;;;12.00;99.90;;;;;;5070537;28;20079;-57
2023/06/10 04:08:50;;;;;;;19.40;10.60;;;12.00;99.90;;;;;;5069920;28;19927;-57
2023/06/10 04:11:18;;;;;;;18.13;10.70;;;12.10;99.90;;;;;;5076038;28;20488;-57
2023/06/10 04:13:46;;;;;;;21.70;11.73;;;12.10;99.90;;;;;;5070304;28;20044;-56
2023/06/10 04:16:15;;;;;;;22.08;11.10;;;12.20;99.90;;;;;;5053559;28;20063;-55
2023/06/10 04:18:43;;;;;;;19.85;11.02;;;12.10;99.90;;;;;;5069751;28;20052;-56
2023/06/10 04:21:12;;;;;;;23.87;11.90;;;12.20;99.90;;;;;;5069316;28;20040;-56
2023/06/10 04:23:40;;;;;;;22.02;12.10;;;12.30;99.90;;;;;;5071932;28;20040;-57
2023/06/10 04:26:12;;;;;;;25.27;10.93;;;12.20;99.90;;;;;;5074167;28;20041;-57
2023/06/10 04:28:40;;;;;;;19.17;11.15;;;12.20;99.90;;;;;;5074121;28;20049;-57
2023/06/10 04:31:09;;;;;;;24.50;11.43;;;12.30;99.90;;;;;;5073775;28;20049;-56
2023/06/10 04:33:38;;;;;;;17.65;11.35;;;12.30;99.90;;;;;;5074274;28;20037;-56
2023/06/10 04:36:07;;;;;;;22.05;11.73;;;12.30;99.90;;;;;;5073894;28;20083;-57
2023/06/10 04:38:36;;;;;;;18.90;11.83;;;12.30;99.90;;;;;;5064886;28;20044;-57
2023/06/10 04:41:04;;;;;;;25.75;11.55;;;12.30;99.90;;;;;;5069559;28;20055;-57
2023/06/10 04:43:34;;;;;;;21.88;12.05;;;12.30;99.90;;;;;;5070416;28;20054;-55
2023/06/10 04:46:02;;;;;;;22.52;11.82;;;12.30;99.90;;;;;;5053520;28;20048;-57
2023/06/10 04:48:35;;;;;;;23.25;11.98;;;12.30;99.90;;;;;;5058641;28;20033;-56
2023/06/10 04:51:05;;;;;;;;;;;12.30;99.90;;;;;;5069985;28;20380;-57
2023/06/10 04:53:33;;;;;;;22.33;12.27;;;12.30;99.90;;;;;;5070156;28;20494;-56
2023/06/10 04:56:01;;;;;;;24.88;12.25;;;12.30;99.90;;;;;;5071075;28;20528;-57
2023/06/10 04:58:29;;;;;;;32.15;13.25;;;12.30;99.90;;;;;;5071040;28;20056;-57
2023/06/10 05:00:57;;;;;;;32.03;13.50;;;12.40;99.90;;;;;;5071359;28;20048;-57
2023/06/10 05:03:25;;;;;;;24.17;13.52;;;12.40;99.90;;;;;;5051714;28;20067;-57
2023/06/10 05:05:53;;;;;;;26.35;12.18;;;12.40;99.90;;;;;;5048119;28;20067;-58
2023/06/10 05:08:21;;;;;;;24.60;12.18;;;12.40;99.90;;;;;;5058224;28;20244;-57
2023/06/10 05:10:49;;;;;;;22.98;12.52;;;12.40;99.90;;;;;;5067914;28;20059;-57
2023/06/10 05:13:17;;;;;;;26.98;13.18;;;12.40;99.90;;;;;;5070669;28;20056;-57
2023/06/10 05:15:46;;;;;;;21.95;12.98;;;12.50;99.90;;;;;;5071097;28;20044;-57
2023/06/10 05:18:14;;;;;;;25.50;14.15;;;12.50;99.90;;;;;;5065248;28;20076;-57
2023/06/10 05:20:42;;;;;;;24.60;12.25;;;12.60;99.90;;;;;;5050034;28;20046;-58
2023/06/10 05:23:10;;;;;;;25.90;14.25;;;12.60;99.90;;;;;;5064480;28;20074;-58
2023/06/10 05:25:38;;;;;;;25.63;13.48;;;12.70;99.90;;;;;;5067463;28;20037;-57
2023/06/10 05:28:09;;;;;;;24.88;13.13;;;12.70;99.90;;;;;;5067332;28;20318;-57
2023/06/10 05:30:41;;;;;;;23.25;13.55;;;12.80;99.90;;;;;;5068107;28;20045;-58
2023/06/10 05:33:08;;;;;;;29.65;13.15;;;13.00;99.90;;;;;;5071736;28;20396;-58
2023/06/10 05:35:36;;;;;;;24.33;14.18;;;13.00;99.90;;;;;;5087736;28;20492;-57
2023/06/10 05:38:05;;;;;;;26.00;14.00;;;13.20;99.90;;;;;;5068278;28;20476;-56
2023/06/10 05:40:33;;;;;;;25.27;11.85;;;13.20;99.90;;;;;;5072557;28;20384;-58
2023/06/10 05:43:01;;;;;;;23.85;12.88;;;13.30;99.90;;;;;;5070611;28;20048;-58
2023/06/10 05:45:29;;;;;;;20.55;12.18;;;13.40;99.90;;;;;;5090917;28;20067;-58
2023/06/10 05:47:57;;;;;;;20.17;12.43;;;13.40;99.90;;;;;;5068852;28;20381;-57
2023/06/10 05:50:25;;;;;;;26.20;11.55;;;13.50;99.90;;;;;;5046971;28;20049;-56
2023/06/10 05:52:54;;;;;;;20.30;12.68;;;12.80;99.90;;;;;;5064217;28;20053;-56
2023/06/10 05:55:22;;;;;;;25.20;13.07;;;13.60;99.90;;;;;;5070196;28;20051;-57
2023/06/10 05:57:59;;;;;;;23.27;12.55;;;13.70;99.90;;;;;;5068952;28;20127;-57
2023/06/10 06:00:28;;;;;;;23.45;12.35;;;13.80;99.90;;;;;;5070067;28;20400;-58
2023/06/10 06:02:57;;;;;;;24.08;12.40;;;13.90;99.90;;;;;;5068287;28;20036;-57
2023/06/10 06:05:25;;;;;;;25.27;12.70;;;14.00;99.90;;;;;;5081768;28;20542;-58
2023/06/10 06:07:53;;;;;;;19.92;12.15;;;14.10;99.90;;;;;;5069903;28;20396;-58
2023/06/10 06:10:21;;;;;;;20.30;11.23;;;14.20;99.90;;;;;;5069675;28;20052;-56
2023/06/10 06:12:48;;;;;;;19.00;11.68;;;14.20;99.90;;;;;;5068469;28;20572;-57
2023/06/10 06:15:16;;;;;;;22.00;11.70;;;14.30;99.90;;;;;;5069999;28;20044;-56
2023/06/10 06:17:44;;;;;;;21.15;11.50;;;14.40;99.90;;;;;;5067017;28;20044;-58
2023/06/10 06:20:12;;;;;;;18.80;10.52;;;14.50;99.90;;;;;;5047707;28;20515;-58
2023/06/10 06:22:40;;;;;;;19.45;11.60;;;14.60;99.90;;;;;;5059297;28;20056;-58
2023/06/10 06:25:08;;;;;;;23.75;11.30;;;14.60;99.90;;;;;;5074030;28;20049;-58
2023/06/10 06:27:36;;;;;;;22.17;11.38;;;14.70;99.90;;;;;;5050914;28;20376;-58
2023/06/10 06:30:05;;;;;;;20.02;11.98;;;14.80;99.90;;;;;;5064749;28;20055;-58
2023/06/10 06:32:33;;;;;;;17.73;11.35;;;14.80;99.90;;;;;;5056266;28;20051;-57
2023/06/10 06:35:01;;;;;;;18.75;10.98;;;14.80;99.90;;;;;;5052979;28;20048;-57
2023/06/10 06:37:29;;;;;;;17.88;10.23;;;14.90;99.90;;;;;;5059159;28;20071;-57
2023/06/10 06:40:18;;;;;;;20.63;10.57;;;15.00;99.90;;;;;;5068508;28;20040;-57
2023/06/10 06:42:46;;;;;;;22.13;10.88;;;15.00;99.90;;;;;;5089622;28;20043;-58
2023/06/10 06:45:23;;;;;;;20.75;10.27;;;15.10;99.90;;;;;;5067141;28;20033;-58
2023/06/10 06:47:52;;;;;;;21.65;10.38;;;15.10;99.90;;;;;;5068706;28;20396;-57
2023/06/10 06:50:20;;;;;;;17.17;10.27;;;15.10;99.90;;;;;;5067147;28;20036;-56
2023/06/10 06:52:48;;;;;;;15.38;10.40;;;15.20;99.90;;;;;;5068321;28;20533;-58
2023/06/10 06:55:16;;;;;;;17.17;9.98;;;15.30;99.90;;;;;;5076077;28;20040;-57
2023/06/10 06:57:44;;;;;;;18.25;10.15;;;15.30;99.90;;;;;;5067975;28;20036;-57
2023/06/10 07:00:14;;;;;;;22.00;10.57;;;15.40;99.90;;;;;;5066173;28;20036;-57
2023/06/10 07:02:41;;;;;;;19.55;10.90;;;15.40;99.90;;;;;;5065026;28;20063;-57
2023/06/10 07:05:09;;;;;;;21.60;11.48;;;15.50;99.90;;;;;;5051661;28;20041;-57
2023/06/10 07:07:41;;;;;;;17.77;10.20;;;15.60;99.90;;;;;;5052645;28;20047;-57
2023/06/10 07:10:09;;;;;;;17.95;9.95;;;15.70;99.90;;;;;;5068662;28;20127;-58
2023/06/10 07:12:37;;;;;;;17.55;10.32;;;15.80;99.90;;;;;;5067432;28;20044;-57
2023/06/10 07:15:05;;;;;;;18.83;10.20;;;15.80;99.90;;;;;;5068411;28;20388;-57
2023/06/10 07:17:34;;;;;;;21.00;10.75;;;15.80;99.90;;;;;;5068653;28;20051;-57
2023/06/10 07:20:02;;;;;;;18.33;10.20;;;16.00;99.90;;;;;;5053741;28;20052;-57
2023/06/10 07:22:30;;;;;;;19.75;10.20;;;16.10;99.90;;;;;;5048726;28;20060;-58
2023/06/10 07:24:58;;;;;;;15.25;9.55;;;16.20;99.90;;;;;;5066683;28;20056;-58
2023/06/10 07:27:26;;;;;;;17.38;9.30;;;16.20;99.90;;;;;;5081404;28;20048;-57
2023/06/10 07:29:54;;;;;;;16.85;10.75;;;16.30;99.90;;;;;;5088727;28;20040;-57
2023/06/10 07:32:23;;;;;;;20.30;10.35;;;16.40;99.90;;;;;;5078213;28;20036;-58
2023/06/10 07:34:51;;;;;;;17.90;9.60;;;16.50;99.90;;;;;;5060197;28;20059;-58
2023/06/10 07:37:19;;;;;;;18.88;9.50;;;16.60;99.90;;;;;;5052351;28;20048;-59
2023/06/10 07:39:47;;;;;;;19.65;10.10;;;16.70;99.90;;;;;;5076803;28;20040;-57
2023/06/10 07:42:15;;;;;;;18.38;10.15;;;16.90;99.90;;;;;;5084905;28;20055;-58
2023/06/10 07:44:43;;;;;;;17.20;9.60;;;16.90;99.90;;;;;;5075590;28;20056;-57
2023/06/10 07:47:12;;;;;;;17.38;10.00;;;17.00;99.90;;;;;;5068867;28;20062;-57
2023/06/10 07:49:40;;;;;;;19.60;9.50;;;17.10;99.90;;;;;;5069859;28;20072;-57
2023/06/10 07:52:08;;;;;;;18.20;9.70;;;17.20;99.90;;;;;;5050726;28;20488;-59
2023/06/10 07:54:36;;;;;;;17.55;10.10;;;17.30;99.90;;;;;;5062471;28;20049;-59
2023/06/10 07:57:06;;;;;;;18.00;9.50;;;17.40;99.90;;;;;;5065201;28;20048;-58
2023/06/10 07:59:34;;;;;;;18.17;9.77;;;17.50;99.90;;;;;;5081934;28;20039;-58
2023/06/10 08:02:02;;;;;;;19.27;8.82;;;17.60;99.90;;;;;;5065213;28;20055;-58
2023/06/10 08:04:30;;;;;;;16.90;9.13;;;17.60;99.90;;;;;;5063475;28;20056;-58
2023/06/10 08:06:58;;;;;;;17.95;9.50;;;17.80;99.90;;;;;;5045021;28;20488;-59
2023/06/10 08:09:26;;;;;;;16.63;9.35;;;17.80;99.90;;;;;;5064003;28;20687;-58
2023/06/10 08:11:55;;;;;;;17.52;8.95;;;18.00;99.90;;;;;;5079681;28;20047;-58
2023/06/10 08:14:23;;;;;;;15.63;9.07;;;18.10;99.90;;;;;;5088121;28;20529;-58
2023/06/10 08:16:51;;;;;;;22.38;10.18;;;18.20;99.90;;;;;;5069980;28;20044;-57
2023/06/10 08:19:19;;;;;;;19.00;9.38;;;18.30;99.90;;;;;;5061987;28;20389;-58
2023/06/10 08:21:47;;;;;;;17.48;8.85;;;18.50;99.90;;;;;;5047951;28;20044;-58
2023/06/10 08:24:17;;;;;;;14.77;8.95;;;18.60;99.90;;;;;;5071187;28;20037;-56
2023/06/10 08:26:46;;;;;;;17.75;9.55;;;18.80;99.90;;;;;;5075132;28;20051;-67
2023/06/10 08:29:13;;;;;;;16.65;9.77;;;19.00;99.90;;;;;;5084464;28;20399;-58
2023/06/10 08:31:43;;;;;;;19.00;8.95;;;18.90;99.90;;;;;;5086705;28;20040;-58
2023/06/10 08:34:11;;;;;;;17.45;8.93;;;19.00;99.90;;;;;;5061370;28;20048;-58
2023/06/10 08:36:39;;;;;;;18.00;8.57;;;19.00;99.90;;;;;;5065477;28;20070;-58
2023/06/10 08:39:08;;;;;;;16.65;8.93;;;19.20;99.90;;;;;;5067345;28;20408;-58
2023/06/10 08:41:43;;;;;;;21.00;9.00;;;19.40;99.90;;;;;;5078387;28;20067;-58
2023/06/10 08:44:18;;;;;;;16.88;9.45;;;19.50;99.90;;;;;;5076446;28;20048;-57
2023/06/10 08:46:47;;;;;;;15.43;8.18;;;19.60;99.90;;;;;;5066306;28;20463;-58
2023/06/10 08:49:22;;;;;;;18.10;8.73;;;19.70;99.90;;;;;;5046581;28;20068;-57
2023/06/10 08:51:58;;;;;;;15.10;8.43;;;19.80;99.90;;;;;;5047431;28;20056;-57
2023/06/10 08:54:35;;;;;;;18.38;8.90;;;19.80;99.90;;;;;;5059099;28;20048;-58
2023/06/10 08:57:06;;;;;;;17.42;8.68;;;19.90;99.90;;;;;;5054569;28;20627;-58
2023/06/10 08:59:33;;;;;;;15.45;8.85;;;20.00;99.90;;;;;;5048026;28;20045;-58
2023/06/10 09:02:04;;;;;;;21.27;8.43;;;20.10;99.90;;;;;;5052263;28;20511;-57
2023/06/10 09:04:33;;;;;;;15.73;8.57;;;20.20;99.90;;;;;;5043560;28;20041;-58
2023/06/10 09:07:02;;;;;;;20.02;9.73;;;20.40;99.90;;;;;;5060926;28;20048;-58
2023/06/10 09:09:30;;;;;;;20.02;9.00;;;20.40;99.90;;;;;;5079492;28;20423;-58
2023/06/10 09:11:59;;;;;;;19.58;9.02;;;20.50;99.90;;;;;;5082795;28;20070;-58
2023/06/10 09:14:27;;;;;;;19.92;8.98;;;20.60;99.90;;;;;;5070755;28;20052;-58
2023/06/10 09:16:57;;;;;;;16.35;9.48;;;20.70;99.90;;;;;;5070975;28;20048;-58
2023/06/10 09:19:26;;;;;;;17.80;8.75;;;20.80;99.90;;;;;;5068772;28;20065;-58
2023/06/10 09:21:55;;;;;;;18.95;9.82;;;21.00;99.90;;;;;;5050992;28;20052;-57
2023/06/10 09:24:23;;;;;;;20.50;9.05;;;21.00;99.90;;;;;;5083076;28;20648;-57
2023/06/10 09:27:08;;;;;;;24.42;10.00;;;21.10;99.90;;;;;;5091243;28;20048;-58
2023/06/10 09:29:48;;;;;;;13.85;8.98;;;21.30;99.90;;;;;;5089831;28;20051;-59
2023/06/10 09:32:18;;;;;;;19.17;9.45;;;21.40;99.90;;;;;;5071789;28;20052;-58
2023/06/10 09:34:47;;;;;;;19.55;9.32;;;21.50;99.90;;;;;;5067109;28;20049;-59
2023/06/10 09:37:22;;;;;;;19.95;9.18;;;21.60;99.90;;;;;;5055785;28;20049;-58
2023/06/10 09:40:05;;;;;;;19.13;9.85;;;21.70;99.90;;;;;;5069563;28;20068;-59
2023/06/10 09:42:35;;;;;;;19.88;9.07;;;21.80;99.90;;;;;;5057018;28;20386;-57
2023/06/10 09:45:03;;;;;;;;;;;22.00;99.90;;;;;;5068837;28;20049;-58
2023/06/10 09:47:32;;;;;;;23.63;8.80;;;22.10;99.90;;;;;;5070426;28;19932;-58
2023/06/10 09:50:01;;;;;;;18.92;9.05;;;22.30;99.90;;;;;;5069082;28;20514;-59
2023/06/10 09:52:30;;;;;;;13.70;8.88;;;22.30;99.90;;;;;;5070423;28;20112;-58
2023/06/10 09:55:01;;;;;;;15.88;10.15;;;22.50;99.90;;;;;;5067216;28;20047;-59
2023/06/10 09:57:35;;;;;;;20.77;10.23;;;22.60;99.90;;;;;;5073279;28;20423;-58
2023/06/10 10:00:09;;;;;;;18.75;9.13;;;22.80;99.90;;;;;;5090853;28;20048;-59
2023/06/10 10:02:51;;;;;;;16.83;9.60;;;22.80;99.90;;;;;;5090290;28;20051;-58
2023/06/10 10:05:21;;;;;;;20.23;9.50;;;23.00;99.90;;;;;;5081687;28;20044;-58
2023/06/10 10:07:51;;;;;;;19.58;9.77;;;23.10;99.90;;;;;;5069505;28;20392;-58
2023/06/10 10:10:21;;;;;;;17.27;9.15;;;23.20;99.90;;;;;;5069274;28;20391;-59
2023/06/10 10:12:58;;;;;;;18.02;8.55;;;23.30;99.90;;;;;;5072207;28;20357;-59
2023/06/10 10:15:31;;;;;;;13.45;8.52;;;23.50;99.90;;;;;;5050007;28;20049;-58
2023/06/10 10:18:11;;;;;;;17.35;9.35;;;23.60;99.90;;;;;;5056958;28;20052;-59
2023/06/10 10:20:47;;;;;;;17.33;9.70;;;23.90;99.90;;;;;;5060970;28;20071;-58
2023/06/10 10:23:21;;;;;;;13.13;8.85;;;23.90;99.90;;;;;;5070466;28;20055;-58
2023/06/10 10:25:53;;;;;;;16.00;9.73;;;24.10;99.90;;;;;;5090094;28;20051;-58
2023/06/10 10:28:26;;;;;;;17.15;9.07;;;24.20;99.90;;;;;;5077712;28;20477;-59
2023/06/10 10:31:02;;;;;;;18.65;9.73;;;24.30;99.90;;;;;;5069603;28;20044;-59
2023/06/10 10:33:40;;;;;;;17.20;9.23;;;24.40;99.90;;;;;;5073851;28;20518;-57
2023/06/10 10:36:09;;;;;;;16.90;9.05;;;24.50;99.90;;;;;;5065497;28;20049;-59
2023/06/10 10:38:37;;;;;;;19.67;8.60;;;24.50;99.90;;;;;;5068663;28;20036;-59
2023/06/10 10:41:06;;;;;;;16.05;9.10;;;24.70;99.90;;;;;;5073548;28;20499;-58
2023/06/10 10:43:34;;;;;;;19.20;8.93;;;24.80;99.90;;;;;;5068097;28;20056;-59
2023/06/10 10:46:11;;;;;;;14.30;9.05;;;24.90;99.90;;;;;;5069344;28;20758;-58
2023/06/10 10:48:41;;;;;;;18.27;9.10;;;25.00;99.90;;;;;;5075285;28;20041;-58
2023/06/10 10:51:09;;;;;;;16.33;8.80;;;25.10;99.90;;;;;;5057752;28;20037;-57
2023/06/10 10:53:38;;;;;;;20.05;7.85;;;25.20;99.90;;;;;;5065176;28;20400;-58
2023/06/10 10:56:15;;;;;;;16.20;7.82;;;25.30;99.90;;;;;;5068989;28;20040;-58
2023/06/10 10:58:42;;;;;;;15.95;9.30;;;25.30;99.90;;;;;;5069042;28;20048;-59
2023/06/10 11:01:14;;;;;;;16.90;8.60;;;25.30;99.90;;;;;;5069211;28;20051;-61
2023/06/10 11:03:47;;;;;;;16.85;8.07;;;25.30;99.90;;;;;;5062607;28;20526;-59
2023/06/10 11:06:17;;;;;;;17.33;9.23;;;25.30;99.90;;;;;;5059801;28;20484;-58
2023/06/10 11:08:47;;;;;;;16.45;8.90;;;25.40;99.90;;;;;;5064096;28;20044;-59
2023/06/10 11:11:20;;;;;;;19.85;9.13;;;25.50;99.90;;;;;;5065547;28;20047;-58
2023/06/10 11:14:31;;;;;;;16.45;8.00;;;25.60;99.90;;;;;;5070269;28;20056;-59
2023/06/10 11:17:00;;;;;;;20.60;8.13;;;25.70;99.90;;;;;;5048470;28;20055;-58
2023/06/10 11:19:36;;;;;;;17.95;8.57;;;25.70;99.80;;;;;;5066607;28;20388;-59
2023/06/10 11:22:06;;;;;;;15.38;8.20;;;25.80;99.60;;;;;;5056507;28;20075;-58
2023/06/10 11:24:35;;;;;;;16.60;7.78;;;26.00;99.50;;;;;;5050797;28;20063;-58
2023/06/10 11:27:20;;;;;;;20.60;8.60;;;26.20;98.30;;;;;;5068485;28;20061;-59
2023/06/10 11:30:03;;;;;;;13.68;7.75;;;26.20;98.40;;;;;;5048380;28;20500;-58
2023/06/10 11:32:34;;;;;;;18.83;7.72;;;26.20;97.70;;;;;;5048962;28;20057;-58
2023/06/10 11:35:04;;;;;;;18.02;8.15;;;26.20;97.60;;;;;;5065163;28;20056;-58
2023/06/10 11:37:32;;;;;;;13.07;7.68;;;;;;;;;;5057178;28;20044;-59
2023/06/10 11:40:00;;;;;;;14.13;6.80;;;26.40;97.70;;;;;;5072113;28;20052;-60
2023/06/10 11:42:29;;;;;;;9.88;6.63;;;26.50;97.40;;;;;;5073429;28;20063;-59
2023/06/10 11:44:57;;;;;;;16.83;7.38;;;26.70;97.20;;;;;;5084238;28;20048;-60
2023/06/10 11:47:26;;;;;;;19.17;7.93;;;26.80;96.80;;;;;;5083848;28;20047;-59
2023/06/10 11:49:58;;;;;;;13.60;7.43;;;26.80;96.20;;;;;;5067964;28;20388;-59
2023/06/10 11:52:37;;;;;;;12.35;7.20;;;26.90;96.30;;;;;;5055780;28;20033;-58
2023/06/10 11:55:08;;;;;;;13.98;6.95;;;27.10;96.50;;;;;;5067498;28;20506;-58
2023/06/10 11:57:38;;;;;;;24.15;6.97;;;27.30;96.40;;;;;;5044783;28;20044;-59
2023/06/10 12:00:07;;;;;;;11.68;6.53;;;27.50;95.70;;;;;;5067649;28;20491;-60
2023/06/10 12:02:38;;;;;;;14.68;7.35;;;27.80;95.10;;;;;;5064931;28;20056;-60
2023/06/10 12:05:13;;;;;;;11.18;7.18;;;27.90;94.40;;;;;;5067377;28;20048;-58
2023/06/10 12:07:41;;;;;;;17.50;7.57;;;28.10;94.10;;;;;;5055864;28;20420;-59
2023/06/10 12:10:09;;;;;;;15.07;6.70;;;28.20;93.70;;;;;;5067763;28;20057;-58
2023/06/10 12:12:54;;;;;;;16.20;6.80;;;28.20;93.80;;;;;;5071013;28;20065;-60
2023/06/10 12:15:25;;;;;;;8.05;5.75;;;28.40;93.20;;;;;;5067778;28;20045;-59
2023/06/10 12:17:54;;;;;;;11.10;5.95;;;28.50;92.60;;;;;;5067879;28;20055;-58
2023/06/10 12:20:28;;;;;;;11.55;6.72;;;28.80;92.80;;;;;;5067783;28;20044;-59
2023/06/10 12:22:56;;;;;;;11.45;6.20;;;;;;;;;;5060575;28;20484;-63
2023/06/10 12:25:29;;;;;;;14.00;5.97;;;29.20;91.70;;;;;;5068177;28;20045;-60
2023/06/10 12:27:58;;;;;;;9.23;5.68;;;29.30;91.30;;;;;;5067546;28;20075;-60
2023/06/10 12:30:27;;;;;;;12.25;6.28;;;29.60;90.60;;;;;;5067561;28;20048;-61
2023/06/10 12:32:55;;;;;;;13.30;6.13;;;29.60;90.90;;;;;;5067058;28;20040;-60
2023/06/10 12:35:26;;;;;;;9.27;5.32;;;29.80;90.80;;;;;;5085601;28;20399;-60
2023/06/10 12:38:03;;;;;;;15.05;6.00;;;30.10;90.00;;;;;;5060377;28;20496;-60
2023/06/10 12:40:40;;;;;;;14.23;6.90;;;30.20;89.80;;;;;;5069283;28;20055;-60
2023/06/10 12:43:11;;;;;;;11.05;5.93;;;30.40;89.00;;;;;;5065361;28;20505;-60
2023/06/10 12:45:43;;;;;;;12.18;5.50;;;30.50;88.60;;;;;;5071507;28;20392;-61
2023/06/10 12:48:17;;;;;;;9.55;5.28;;;30.80;88.40;;;;;;5069302;28;20428;-60
2023/06/10 12:50:51;;;;;;;13.43;5.65;;;31.00;86.40;;;;;;5072090;28;20059;-60